Pagina principale
METAR-TAF:

METAR-TAF

Aeroporti :

Aeroporto di Niamey-Diori Hamani

Niamey, Niger

latitudine: 13-29N, longitudine: 002-10E, altezza: 223 m

Osservazione

Il bollettino è stato emesso 56 minuti fa, alle 13:00 UTC
Vento 9 kt da sud-est, variando fra est e sud
Temperature 35°C
Umidità 5%
Pressione 1012 hPa
Visibilità 10 km o più
nessuna nube inferiore a 1500 m e nessun cumulonembo

METAR: DRRN 171300Z 14009KT 100V180 CAVOK 35/M10 Q1012 NOSIG

Ora: 14:56 (13:56 UTC)

Previsione

Il bollettino è stato emesso 2 ore e 56 minuti fa, alle 11:00 UTC
Previsione valida dal 17 alle 12 UTC al 18 alle 18 UTC
Vento 10 kt da est
Visibilità: 8000 m
Temporaneamente
dal 17 alle 17 UTC al 17 alle 20 UTC
Visibilità: 4000 m
polvere diffusa

TAF: DRRN 171100Z 1712/1818 10010KT 8000 NSC TEMPO 1717/1720 4000 DU

Osservazioni e previsioni meteorologiche di più di 4000 aeroporti (messaggi METAR e TAF).

Le stazioni disponibili sono rappresentate dai dischi gialli e rossi sulla carta.

Puntare il mouse per vedere il nome della stazione.

Clicca sopra per visualizzare le osservazioni e previsioni meteorologiche.

Per cambiare la mappa : fare clic sui pulsanti verdi con una croce nera per ingrandire, il pulsante verde con un trattino per diminuire, o sulla freccia verde per le mappe adiacenti.


METAR-TAF: